Time;durP1;ratioP1;P1;durP2;ratioP2;P2;SDS_P1;SDS_P2;PMS_P1;PMS_P2;Temp;Humidity;BMP_temperature;BMP_pressure;BME280_temperature;BME280_humidity;BME280_pressure;Samples;Min_cycle;Max_cycle;Signal;HPM_P1;HPM_P2
2023/09/19 00:00:46;;;;;;;8.65;2.38;;;14.60;99.90;;;;;;4991095;28;20058;-63
2023/09/19 00:03:13;;;;;;;6.80;2.08;;;14.50;99.90;;;;;;4993465;28;20064;-65
2023/09/19 00:05:39;;;;;;;8.32;2.28;;;14.60;99.90;;;;;;5010473;28;20054;-64
2023/09/19 00:08:06;;;;;;;5.75;1.95;;;14.50;99.90;;;;;;5011401;28;20061;-65
2023/09/19 00:10:34;;;;;;;5.20;2.33;;;14.50;99.90;;;;;;4993292;28;20060;-63
2023/09/19 00:13:05;;;;;;;9.10;2.30;;;14.50;99.90;;;;;;5010574;28;20057;-64
2023/09/19 00:15:40;;;;;;;8.32;2.25;;;14.40;99.90;;;;;;5010936;28;20046;-65
2023/09/19 00:18:07;;;;;;;7.88;2.10;;;14.50;99.90;;;;;;5010071;28;20395;-65
2023/09/19 00:20:36;;;;;;;7.03;2.05;;;14.30;99.90;;;;;;5010737;28;20050;-63
2023/09/19 00:23:05;;;;;;;7.82;2.20;;;14.40;99.90;;;;;;5010116;28;20084;-65
2023/09/19 00:25:32;;;;;;;8.02;2.10;;;14.40;99.90;;;;;;5010456;28;20050;-66
2023/09/19 00:27:58;;;;;;;5.75;2.00;;;14.40;99.90;;;;;;5009992;28;20056;-65
2023/09/19 00:30:24;;;;;;;8.55;2.10;;;14.40;99.90;;;;;;5010584;28;20053;-64
2023/09/19 00:32:54;;;;;;;7.07;2.22;;;14.30;99.90;;;;;;5010339;28;20049;-65
2023/09/19 00:35:23;;;;;;;6.05;2.13;;;14.30;99.90;;;;;;5010199;28;20119;-63
2023/09/19 00:37:50;;;;;;;8.35;2.63;;;14.30;99.90;;;;;;4992424;28;20160;-62
2023/09/19 00:40:17;;;;;;;10.00;2.10;;;14.30;99.90;;;;;;5010292;28;20112;-62
2023/09/19 00:42:44;;;;;;;7.90;2.25;;;14.30;99.90;;;;;;5009125;28;20466;-64
2023/09/19 00:45:13;;;;;;;8.25;2.38;;;14.20;99.90;;;;;;5010261;28;20290;-63
2023/09/19 00:47:41;;;;;;;8.93;2.40;;;14.20;99.90;;;;;;5009800;28;20459;-64
2023/09/19 00:50:10;;;;;;;5.63;2.22;;;14.20;99.90;;;;;;5010236;28;20112;-65
2023/09/19 00:52:39;;;;;;;9.18;2.33;;;14.20;99.90;;;;;;5009999;28;20054;-64
2023/09/19 00:55:07;;;;;;;7.25;2.67;;;14.10;99.90;;;;;;5010232;28;20046;-65
2023/09/19 00:57:34;;;;;;;8.50;2.58;;;14.20;99.90;;;;;;5009713;28;20486;-66
2023/09/19 01:00:06;;;;;;;9.98;2.53;;;14.20;99.90;;;;;;5010357;28;20049;-63
2023/09/19 01:02:33;;;;;;;6.47;2.33;;;14.10;99.90;;;;;;5009865;28;20064;-64
2023/09/19 01:05:00;;;;;;;9.15;2.65;;;14.00;99.90;;;;;;5010094;28;20445;-64
2023/09/19 01:07:30;;;;;;;7.53;2.55;;;14.10;99.90;;;;;;4992398;28;20046;-65
2023/09/19 01:09:58;;;;;;;6.68;2.40;;;14.00;99.90;;;;;;5010260;28;20121;-67
2023/09/19 01:12:41;;;;;;;6.68;1.95;;;14.10;99.90;;;;;;5009625;28;20383;-66
2023/09/19 01:15:21;;;;;;;13.13;2.88;;;14.00;99.90;;;;;;5010414;28;20065;-64
2023/09/19 01:18:12;;;;;;;6.35;2.17;;;13.90;99.90;;;;;;4991569;28;20069;-64
2023/09/19 01:21:11;;;;;;;4.70;2.22;;;13.90;99.90;;;;;;4992321;28;20072;-65
2023/09/19 01:24:26;;;;;;;9.07;2.15;;;13.90;99.90;;;;;;4973478;28;20375;-64
2023/09/19 01:27:17;;;;;;;6.97;2.30;;;13.90;99.90;;;;;;4972567;28;20051;-64
2023/09/19 01:29:48;;;;;;;9.15;2.85;;;13.90;99.90;;;;;;4976603;28;20054;-62
2023/09/19 01:32:24;;;;;;;8.38;2.75;;;13.80;99.90;;;;;;4995970;28;20053;-64
2023/09/19 01:35:03;;;;;;;9.05;2.45;;;13.90;99.90;;;;;;4996230;28;20053;-63
2023/09/19 01:37:31;;;;;;;10.90;2.63;;;13.90;99.90;;;;;;4995739;28;20050;-63
2023/09/19 01:40:04;;;;;;;9.70;2.63;;;13.80;99.90;;;;;;4979600;28;20056;-63
2023/09/19 01:42:42;;;;;;;7.80;2.63;;;13.70;99.90;;;;;;4996204;28;20061;-63
2023/09/19 01:45:16;;;;;;;7.15;2.60;;;13.80;99.90;;;;;;4995782;28;20046;-63
2023/09/19 01:47:55;;;;;;;9.18;2.58;;;13.80;99.90;;;;;;4995624;28;20050;-63
2023/09/19 01:50:49;;;;;;;7.13;2.70;;;13.70;99.90;;;;;;4996375;28;20061;-63
2023/09/19 01:53:33;;;;;;;7.82;3.00;;;13.70;99.90;;;;;;5012921;28;20124;-63
2023/09/19 01:56:01;;;;;;;7.85;2.70;;;13.70;99.90;;;;;;4994884;28;20054;-63
2023/09/19 01:58:37;;;;;;;5.90;2.45;;;13.70;99.90;;;;;;4994875;28;20119;-63
2023/09/19 02:01:05;;;;;;;6.63;2.30;;;13.70;99.90;;;;;;4994837;28;20363;-64
2023/09/19 02:03:34;;;;;;;6.68;2.50;;;13.70;99.90;;;;;;4995643;28;20358;-63
2023/09/19 02:06:01;;;;;;;4.95;2.83;;;13.80;99.90;;;;;;4994966;28;20332;-62
2023/09/19 02:08:27;;;;;;;6.90;2.53;;;13.70;99.90;;;;;;4995365;28;20097;-64
2023/09/19 02:10:53;;;;;;;5.85;2.30;;;13.80;99.90;;;;;;4995681;28;20423;-63
2023/09/19 02:13:26;;;;;;;9.05;2.65;;;13.70;99.90;;;;;;4995411;28;20061;-64
2023/09/19 02:15:52;;;;;;;6.97;2.40;;;13.80;99.90;;;;;;4979074;28;20061;-63
2023/09/19 02:18:19;;;;;;;6.63;2.50;;;13.80;99.90;;;;;;5012466;28;20072;-64
2023/09/19 02:20:46;;;;;;;8.23;2.33;;;13.70;99.90;;;;;;5012487;28;20058;-63
2023/09/19 02:23:13;;;;;;;9.75;2.55;;;13.70;99.90;;;;;;4994924;28;20084;-64
2023/09/19 02:25:40;;;;;;;5.95;2.50;;;13.70;99.90;;;;;;4994908;28;20061;-64
2023/09/19 02:28:09;;;;;;;9.35;2.47;;;13.60;99.90;;;;;;5011216;28;20057;-64
2023/09/19 02:30:36;;;;;;;6.95;2.47;;;13.70;99.90;;;;;;4995333;28;20050;-64
2023/09/19 02:33:03;;;;;;;10.18;2.78;;;13.60;99.90;;;;;;4995205;28;20422;-65
2023/09/19 02:35:32;;;;;;;5.90;2.47;;;13.70;99.90;;;;;;4978565;28;20055;-64
2023/09/19 02:37:59;;;;;;;6.10;2.30;;;13.70;99.90;;;;;;4994390;28;20053;-63
2023/09/19 02:40:26;;;;;;;7.43;2.50;;;13.60;99.90;;;;;;5011504;28;20050;-66
2023/09/19 02:42:56;;;;;;;7.75;2.58;;;13.70;99.90;;;;;;4979190;28;20500;-65
2023/09/19 02:45:23;;;;;;;6.68;2.67;;;13.60;99.90;;;;;;4974759;28;20050;-64
2023/09/19 02:47:49;;;;;;;7.80;2.65;;;13.60;99.90;;;;;;4975104;28;20054;-65
2023/09/19 02:50:17;;;;;;;7.18;2.17;;;13.50;99.90;;;;;;4992311;28;20082;-64
2023/09/19 02:52:44;;;;;;;7.22;2.60;;;13.60;99.90;;;;;;4972469;28;20050;-64
2023/09/19 02:55:12;;;;;;;6.68;2.13;;;13.60;99.90;;;;;;4994566;28;20053;-64
2023/09/19 02:57:42;;;;;;;6.70;2.50;;;13.60;99.90;;;;;;4994355;28;20057;-64
2023/09/19 03:00:12;;;;;;;7.55;2.75;;;13.60;99.90;;;;;;4994627;28;20057;-63
2023/09/19 03:02:40;;;;;;;7.65;2.42;;;13.70;99.90;;;;;;4980928;28;20069;-64
2023/09/19 03:05:07;;;;;;;6.95;2.38;;;13.60;99.90;;;;;;4974892;28;20157;-63
2023/09/19 03:07:34;;;;;;;9.95;2.88;;;13.70;99.90;;;;;;4974742;28;20152;-64
2023/09/19 03:10:00;;;;;;;9.30;3.03;;;13.70;99.90;;;;;;4975305;28;20126;-65
2023/09/19 03:12:27;;;;;;;9.07;2.60;;;13.80;99.90;;;;;;4970582;28;20134;-65
2023/09/19 03:14:53;;;;;;;7.63;2.65;;;13.80;99.90;;;;;;4978106;28;20145;-62
2023/09/19 03:17:20;;;;;;;7.28;2.50;;;13.90;99.90;;;;;;4994203;28;20108;-64
2023/09/19 03:19:47;;;;;;;6.55;2.20;;;13.90;99.90;;;;;;4994272;28;20457;-64
2023/09/19 03:22:14;;;;;;;7.45;1.90;;;13.90;99.90;;;;;;4984070;28;20356;-65
2023/09/19 03:24:41;;;;;;;6.43;1.80;;;13.90;99.90;;;;;;4991834;28;20426;-64
2023/09/19 03:27:10;;;;;;;8.85;2.47;;;14.00;99.90;;;;;;4974454;28;20061;-63
2023/09/19 03:29:40;;;;;;;5.00;2.00;;;14.00;99.90;;;;;;4974713;28;20058;-64
2023/09/19 03:32:06;;;;;;;4.78;2.28;;;14.00;99.90;;;;;;5000461;28;20131;-64
2023/09/19 03:34:32;;;;;;;6.75;2.40;;;14.10;99.90;;;;;;5011593;28;20053;-63
2023/09/19 03:36:59;;;;;;;5.25;2.63;;;14.10;99.90;;;;;;5010829;28;20120;-64
2023/09/19 03:39:25;;;;;;;6.88;2.50;;;14.10;99.90;;;;;;5011133;28;20374;-64
2023/09/19 03:41:52;;;;;;;5.70;2.40;;;14.10;99.90;;;;;;5004670;28;20042;-63
2023/09/19 03:44:18;;;;;;;10.55;2.78;;;14.10;99.90;;;;;;4991795;28;20046;-64
2023/09/19 03:46:44;;;;;;;7.50;2.17;;;14.00;99.90;;;;;;4990964;28;20466;-64
2023/09/19 03:49:10;;;;;;;7.13;2.67;;;14.10;99.90;;;;;;4991409;28;20439;-63
2023/09/19 03:51:37;;;;;;;7.28;2.40;;;14.00;99.90;;;;;;4995788;28;20042;-62
2023/09/19 03:54:04;;;;;;;7.90;2.55;;;14.00;99.90;;;;;;4993866;28;20146;-64
2023/09/19 03:56:31;;;;;;;6.63;2.55;;;14.10;99.90;;;;;;5010846;28;20092;-63
2023/09/19 03:58:57;;;;;;;7.18;2.40;;;14.10;99.90;;;;;;5011015;28;20064;-64
2023/09/19 04:01:23;;;;;;;7.18;2.60;;;14.00;99.90;;;;;;5008189;28;20066;-63
2023/09/19 04:03:51;;;;;;;9.13;3.10;;;14.00;99.90;;;;;;4991306;28;20173;-64
2023/09/19 04:06:17;;;;;;;5.53;2.50;;;13.90;99.90;;;;;;4991378;28;20058;-65
2023/09/19 04:08:44;;;;;;;7.03;2.95;;;13.90;99.90;;;;;;4991357;28;20077;-63
2023/09/19 04:11:10;;;;;;;11.02;3.05;;;13.80;99.90;;;;;;4991919;28;20062;-64
2023/09/19 04:13:37;;;;;;;6.88;2.35;;;13.90;99.90;;;;;;4991133;28;20047;-65
2023/09/19 04:16:06;;;;;;;8.70;2.90;;;13.90;99.90;;;;;;4973778;28;20061;-64
2023/09/19 04:18:37;;;;;;;7.10;2.45;;;13.90;99.90;;;;;;4975001;28;20237;-64
2023/09/19 04:21:04;;;;;;;6.65;2.70;;;13.80;99.90;;;;;;4991243;28;20050;-65
2023/09/19 04:23:30;;;;;;;9.13;2.45;;;13.90;99.90;;;;;;4993149;28;20133;-65
2023/09/19 04:25:57;;;;;;;8.93;2.70;;;13.90;99.90;;;;;;4992384;28;20057;-65
2023/09/19 04:28:24;;;;;;;11.15;2.97;;;13.80;99.90;;;;;;4993406;28;20069;-65
2023/09/19 04:30:57;;;;;;;7.38;2.50;;;13.80;99.90;;;;;;4993663;28;20319;-64
2023/09/19 04:33:24;;;;;;;5.32;2.55;;;13.80;99.90;;;;;;4991558;28;20501;-63
2023/09/19 04:35:51;;;;;;;8.30;2.45;;;13.80;99.90;;;;;;4990562;28;20058;-64
2023/09/19 04:38:19;;;;;;;11.23;3.25;;;13.70;99.90;;;;;;4989076;28;20054;-62
2023/09/19 04:40:46;;;;;;;5.93;2.63;;;13.80;99.90;;;;;;5009844;28;20050;-63
2023/09/19 04:43:12;;;;;;;8.60;2.78;;;13.70;99.90;;;;;;5009586;28;20272;-64
2023/09/19 04:45:40;;;;;;;13.10;3.03;;;13.80;99.90;;;;;;5008068;28;20362;-63
2023/09/19 04:48:06;;;;;;;7.63;2.67;;;13.90;99.90;;;;;;5007191;28;20104;-64
2023/09/19 04:50:34;;;;;;;11.40;3.15;;;13.90;99.90;;;;;;5009029;28;20130;-63
2023/09/19 04:53:01;;;;;;;8.57;2.53;;;13.80;99.90;;;;;;5005889;28;20052;-63
2023/09/19 04:55:27;;;;;;;8.25;2.75;;;13.80;99.90;;;;;;5008233;28;20053;-61
2023/09/19 04:57:53;;;;;;;10.45;3.35;;;13.70;99.90;;;;;;5008194;28;20116;-62
2023/09/19 05:00:24;;;;;;;12.63;3.22;;;13.70;99.90;;;;;;5008371;28;20049;-61
2023/09/19 05:02:52;;;;;;;7.63;2.67;;;13.80;99.90;;;;;;5006685;28;20375;-64
2023/09/19 05:05:19;;;;;;;10.25;2.53;;;13.80;99.90;;;;;;5013358;28;20214;-64
2023/09/19 05:07:46;;;;;;;9.45;2.40;;;13.80;99.90;;;;;;5014088;28;20366;-63
2023/09/19 05:10:13;;;;;;;8.52;2.42;;;13.70;99.90;;;;;;5013290;28;20042;-64
2023/09/19 05:12:39;;;;;;;9.23;3.05;;;13.70;99.90;;;;;;4995620;28;20053;-64
2023/09/19 05:15:07;;;;;;;11.15;2.63;;;13.70;99.90;;;;;;5013369;28;20057;-64
2023/09/19 05:17:34;;;;;;;10.57;3.08;;;13.70;99.90;;;;;;4987605;28;20156;-62
2023/09/19 05:20:14;;;;;;;8.02;3.08;;;13.70;99.90;;;;;;5013811;28;20053;-64
2023/09/19 05:22:42;;;;;;;9.30;2.70;;;13.60;99.90;;;;;;4997563;28;20077;-63
2023/09/19 05:25:10;;;;;;;6.47;2.60;;;13.60;99.90;;;;;;5011666;28;20465;-63
2023/09/19 05:27:37;;;;;;;9.98;2.60;;;13.50;99.90;;;;;;5011136;28;20069;-65
2023/09/19 05:30:04;;;;;;;6.47;2.53;;;13.50;99.90;;;;;;5013187;28;20046;-62
2023/09/19 05:32:30;;;;;;;10.05;3.30;;;13.50;99.90;;;;;;5012928;28;20046;-64
2023/09/19 05:34:57;;;;;;;10.27;2.90;;;13.40;99.90;;;;;;5012490;28;20080;-64
2023/09/19 05:37:23;;;;;;;8.88;2.95;;;13.50;99.90;;;;;;4995174;28;20336;-64
2023/09/19 05:39:49;;;;;;;6.60;2.72;;;13.40;99.90;;;;;;5013539;28;20049;-62
2023/09/19 05:42:16;;;;;;;6.75;2.25;;;13.50;99.90;;;;;;5012851;28;20480;-64
2023/09/19 05:44:42;;;;;;;11.82;2.88;;;13.40;99.90;;;;;;5013048;28;20052;-64
2023/09/19 05:47:08;;;;;;;8.70;2.60;;;13.40;99.90;;;;;;5012715;28;20110;-64
2023/09/19 05:49:38;;;;;;;11.70;2.72;;;13.40;99.90;;;;;;5012265;28;20046;-64
2023/09/19 05:52:06;;;;;;;8.50;2.58;;;13.50;99.90;;;;;;5012552;28;20319;-64
2023/09/19 05:54:34;;;;;;;9.15;3.08;;;13.60;99.90;;;;;;5013327;28;20041;-64
2023/09/19 05:57:01;;;;;;;6.70;2.75;;;13.80;99.90;;;;;;5012673;28;20042;-64
2023/09/19 05:59:28;;;;;;;6.75;2.50;;;13.90;99.90;;;;;;5012325;28;20474;-64
2023/09/19 06:01:55;;;;;;;12.45;2.63;;;13.90;99.90;;;;;;5012696;28;20049;-64
2023/09/19 06:04:21;;;;;;;11.98;3.30;;;13.90;99.90;;;;;;5014008;28;20134;-64
2023/09/19 06:06:48;;;;;;;9.45;2.72;;;14.10;99.90;;;;;;5012509;28;20458;-63
2023/09/19 06:09:15;;;;;;;10.82;2.75;;;14.40;99.90;;;;;;5012421;28;20451;-63
2023/09/19 06:11:42;;;;;;;8.90;2.90;;;14.60;99.90;;;;;;5011908;28;20592;-64
2023/09/19 06:14:10;;;;;;;9.07;2.65;;;14.60;99.90;;;;;;5011703;28;20042;-63
2023/09/19 06:16:41;;;;;;;7.28;2.30;;;14.60;99.90;;;;;;5010873;28;20112;-64
2023/09/19 06:19:08;;;;;;;10.98;2.92;;;14.40;99.90;;;;;;5012212;28;20058;-64
2023/09/19 06:21:35;;;;;;;6.38;2.80;;;14.30;99.90;;;;;;5011915;28;20052;-64
2023/09/19 06:24:02;;;;;;;7.05;2.47;;;14.20;99.90;;;;;;5011977;28;20476;-64
2023/09/19 06:26:30;;;;;;;8.88;2.90;;;14.10;99.90;;;;;;5011678;28;20050;-64
2023/09/19 06:28:57;;;;;;;6.68;2.85;;;14.10;99.90;;;;;;5011589;28;20042;-64
2023/09/19 06:31:26;;;;;;;7.38;3.13;;;14.10;99.90;;;;;;5011697;28;20057;-64
2023/09/19 06:33:52;;;;;;;9.85;3.13;;;14.10;99.90;;;;;;5012360;28;20049;-64
2023/09/19 06:36:19;;;;;;;9.60;4.13;;;14.00;99.90;;;;;;5011355;28;20057;-63
2023/09/19 06:38:46;;;;;;;8.52;2.67;;;14.00;99.90;;;;;;5011811;28;20062;-62
2023/09/19 06:41:13;;;;;;;9.70;3.03;;;14.10;99.90;;;;;;5011263;28;20454;-64
2023/09/19 06:43:39;;;;;;;9.20;3.13;;;14.10;99.90;;;;;;4991774;28;20062;-64
2023/09/19 06:46:07;;;;;;;9.57;2.72;;;14.10;99.90;;;;;;4991793;28;20163;-63
2023/09/19 06:48:33;;;;;;;10.27;2.85;;;14.20;99.90;;;;;;4992214;28;20050;-63
2023/09/19 06:51:04;;;;;;;8.40;2.90;;;14.10;99.90;;;;;;4992696;28;20141;-64
2023/09/19 06:53:32;;;;;;;12.07;3.30;;;14.30;99.90;;;;;;5011369;28;20050;-63
2023/09/19 06:55:58;;;;;;;11.68;2.78;;;14.40;99.90;;;;;;5011739;28;20380;-62
2023/09/19 06:58:24;;;;;;;9.43;2.50;;;14.40;99.90;;;;;;5011586;28;20050;-62
2023/09/19 07:00:51;;;;;;;8.50;2.78;;;14.50;99.90;;;;;;5011790;28;20224;-62
2023/09/19 07:03:21;;;;;;;8.88;2.40;;;14.40;99.90;;;;;;5011496;28;20049;-62
2023/09/19 07:05:48;;;;;;;13.27;2.92;;;14.50;99.90;;;;;;5011034;28;20450;-64
2023/09/19 07:08:19;;;;;;;8.32;2.70;;;14.50;99.90;;;;;;5011905;28;20648;-62
2023/09/19 07:10:48;;;;;;;8.48;2.72;;;14.60;99.90;;;;;;5011770;28;20050;-62
2023/09/19 07:13:16;;;;;;;9.23;2.60;;;14.70;99.90;;;;;;5011519;28;20231;-62
2023/09/19 07:15:46;;;;;;;11.60;2.95;;;14.70;99.90;;;;;;5011230;28;20046;-63
2023/09/19 07:18:15;;;;;;;11.25;3.05;;;14.80;99.90;;;;;;5011274;28;20050;-63
2023/09/19 07:20:48;;;;;;;12.98;2.65;;;14.80;99.90;;;;;;4994148;28;20426;-61
2023/09/19 07:23:21;;;;;;;10.15;2.75;;;14.80;99.90;;;;;;5011168;28;20115;-63
2023/09/19 07:26:11;;;;;;;10.68;2.58;;;14.90;99.90;;;;;;5010639;28;20050;-63
2023/09/19 07:29:02;;;;;;;9.75;3.20;;;14.90;99.90;;;;;;5005773;28;20466;-63
2023/09/19 07:31:29;;;;;;;8.60;2.88;;;15.00;99.90;;;;;;4993016;28;20060;-63
2023/09/19 07:33:55;;;;;;;7.38;2.42;;;15.00;99.90;;;;;;5011034;28;20366;-64
2023/09/19 07:36:24;;;;;;;12.32;3.08;;;14.90;99.90;;;;;;5011097;28;20084;-63
2023/09/19 07:38:50;;;;;;;6.57;2.78;;;15.20;99.90;;;;;;5004791;28;20046;-63
2023/09/19 07:41:43;;;;;;;7.53;2.42;;;15.10;99.90;;;;;;4991165;28;20050;-63
2023/09/19 07:44:11;;;;;;;10.07;3.17;;;15.30;99.90;;;;;;4954703;28;20050;-61
2023/09/19 07:46:44;;;;;;;10.43;3.10;;;15.40;99.90;;;;;;4971955;28;20064;-63
2023/09/19 07:49:11;;;;;;;9.35;2.83;;;15.40;99.90;;;;;;4963420;28;20051;-63
2023/09/19 07:51:38;;;;;;;10.00;2.83;;;15.50;99.90;;;;;;4978010;28;20425;-63
2023/09/19 07:54:05;;;;;;;8.40;2.50;;;15.50;99.90;;;;;;5010754;28;20379;-62
2023/09/19 07:56:31;;;;;;;9.93;2.78;;;15.50;99.90;;;;;;5010354;28;20402;-62
2023/09/19 07:58:59;;;;;;;9.98;3.00;;;15.50;99.90;;;;;;5009996;28;20050;-63
2023/09/19 08:01:27;;;;;;;10.43;2.92;;;15.50;99.90;;;;;;5009258;28;20057;-61
2023/09/19 08:03:53;;;;;;;6.18;2.53;;;15.60;99.90;;;;;;4991341;28;20091;-63
2023/09/19 08:06:20;;;;;;;12.57;3.30;;;15.80;99.90;;;;;;4991242;28;20046;-63
2023/09/19 08:08:46;;;;;;;7.25;3.10;;;15.70;99.90;;;;;;4990363;28;20105;-63
2023/09/19 08:11:13;;;;;;;10.02;3.30;;;15.70;99.90;;;;;;4990853;28;20051;-64
2023/09/19 08:13:46;;;;;;;9.48;2.60;;;15.80;99.90;;;;;;4991164;28;20083;-62
2023/09/19 08:16:14;;;;;;;10.73;2.80;;;15.90;99.90;;;;;;4991277;28;20122;-61
2023/09/19 08:18:41;;;;;;;12.98;3.00;;;16.00;99.90;;;;;;4990281;28;20066;-63
2023/09/19 08:21:11;;;;;;;12.50;3.83;;;16.10;99.90;;;;;;4990484;28;20042;-61
2023/09/19 08:23:41;;;;;;;8.55;2.65;;;16.00;99.90;;;;;;4991206;28;20435;-63
2023/09/19 08:26:08;;;;;;;11.60;3.50;;;16.20;99.90;;;;;;4990808;28;20086;-63
2023/09/19 08:28:35;;;;;;;12.13;3.03;;;16.20;99.90;;;;;;4990211;28;20349;-61
2023/09/19 08:31:05;;;;;;;12.27;2.88;;;16.20;99.90;;;;;;4990747;28;20062;-63
2023/09/19 08:33:33;;;;;;;11.30;3.35;;;16.40;99.90;;;;;;5008290;28;20458;-62
2023/09/19 08:36:00;;;;;;;10.77;3.35;;;16.40;99.90;;;;;;5010457;28;20045;-62
2023/09/19 08:38:29;;;;;;;14.18;3.45;;;16.40;99.90;;;;;;5008830;28;20050;-63
2023/09/19 08:41:09;;;;;;;11.82;3.15;;;16.40;99.90;;;;;;4993116;28;20053;-63
2023/09/19 08:43:36;;;;;;;10.80;2.83;;;16.50;99.90;;;;;;4991999;28;20121;-61
2023/09/19 08:46:14;;;;;;;9.25;3.00;;;16.50;99.90;;;;;;4990183;28;20065;-63
2023/09/19 08:49:02;;;;;;;9.63;2.97;;;16.70;99.90;;;;;;4989627;28;20043;-62
2023/09/19 08:51:46;;;;;;;7.68;2.65;;;16.80;99.90;;;;;;4991035;28;20046;-63
2023/09/19 08:54:22;;;;;;;9.35;2.58;;;16.90;99.90;;;;;;5009838;28;20080;-63
2023/09/19 08:56:50;;;;;;;10.35;3.10;;;17.00;99.90;;;;;;5009663;28;20085;-62
2023/09/19 08:59:24;;;;;;;9.95;3.28;;;17.20;99.90;;;;;;5009404;28;20057;-62
2023/09/19 09:01:53;;;;;;;10.30;3.08;;;17.30;99.90;;;;;;5005933;28;20061;-63
2023/09/19 09:04:20;;;;;;;7.18;2.40;;;17.40;99.90;;;;;;4989780;28;20474;-63
2023/09/19 09:06:49;;;;;;;8.88;2.80;;;17.50;99.90;;;;;;4990431;28;20050;-63
2023/09/19 09:09:16;;;;;;;15.15;3.33;;;17.60;99.90;;;;;;4989741;28;20572;-63
2023/09/19 09:11:42;;;;;;;9.23;3.15;;;17.50;99.90;;;;;;4992690;28;20112;-65
2023/09/19 09:14:11;;;;;;;9.70;3.10;;;17.70;99.90;;;;;;5009238;28;20365;-63
2023/09/19 09:16:37;;;;;;;11.05;3.20;;;17.70;99.90;;;;;;5009827;28;20042;-63
2023/09/19 09:19:05;;;;;;;12.45;3.20;;;17.80;99.90;;;;;;5009206;28;20120;-63
2023/09/19 09:21:35;;;;;;;10.82;3.05;;;17.80;99.90;;;;;;5008317;28;20050;-63
2023/09/19 09:24:33;;;;;;;11.07;2.90;;;17.80;99.90;;;;;;4990044;28;20054;-65
2023/09/19 09:27:00;;;;;;;7.72;3.17;;;17.80;99.90;;;;;;4989843;28;20058;-63
2023/09/19 09:29:49;;;;;;;10.00;3.47;;;17.80;99.90;;;;;;4989084;28;20093;-63
2023/09/19 09:32:31;;;;;;;9.85;3.33;;;17.80;99.90;;;;;;4996510;28;20477;-63
2023/09/19 09:35:01;;;;;;;9.48;3.25;;;17.80;99.90;;;;;;4992013;28;20057;-63
2023/09/19 09:37:30;;;;;;;9.35;3.10;;;17.90;99.90;;;;;;5009220;28;20332;-62
2023/09/19 09:40:19;;;;;;;9.00;3.38;;;17.80;99.90;;;;;;5008842;28;20058;-63
2023/09/19 09:42:52;;;;;;;10.02;2.92;;;17.90;99.90;;;;;;4997797;28;20486;-62
2023/09/19 09:45:28;;;;;;;8.88;2.92;;;17.80;99.90;;;;;;4989642;28;20064;-62
2023/09/19 09:47:57;;;;;;;11.13;4.07;;;17.80;99.90;;;;;;4989460;28;20050;-62
2023/09/19 09:53:31;;;;;;;10.98;3.70;;;18.00;99.90;;;;;;5008472;28;20050;-63
2023/09/19 09:56:05;;;;;;;9.50;3.30;;;18.00;99.90;;;;;;5012779;28;20359;-63
2023/09/19 09:58:32;;;;;;;13.77;3.90;;;18.00;99.90;;;;;;5012286;28;20462;-63
2023/09/19 10:01:01;;;;;;;14.32;3.78;;;18.00;99.90;;;;;;5012411;28;20483;-62
2023/09/19 10:03:33;;;;;;;10.82;3.42;;;18.00;99.90;;;;;;4995486;28;20050;-62
2023/09/19 10:06:09;;;;;;;11.98;3.30;;;18.20;99.90;;;;;;4993343;28;20371;-61
2023/09/19 10:08:36;;;;;;;12.30;3.72;;;18.20;99.90;;;;;;4992804;28;20047;-63
2023/09/19 10:11:16;;;;;;;10.68;3.58;;;18.10;99.90;;;;;;4993028;28;20042;-63
2023/09/19 10:13:43;;;;;;;13.48;3.50;;;18.10;99.90;;;;;;5011872;28;20042;-63
2023/09/19 10:16:11;;;;;;;10.20;3.42;;;18.10;99.90;;;;;;5012769;28;20042;-63
2023/09/19 10:18:39;;;;;;;9.77;3.50;;;18.10;99.90;;;;;;4995126;28;20050;-63
2023/09/19 10:21:09;;;;;;;9.65;3.22;;;18.10;99.90;;;;;;5012613;28;20061;-63
2023/09/19 10:23:37;;;;;;;11.07;3.40;;;18.20;99.90;;;;;;4994547;28;20501;-63
2023/09/19 10:26:05;;;;;;;13.88;3.85;;;18.40;99.90;;;;;;4975804;28;20422;-63
2023/09/19 10:28:33;;;;;;;8.80;3.45;;;18.50;99.90;;;;;;4992323;28;20065;-63
2023/09/19 10:31:00;;;;;;;15.57;3.70;;;18.50;99.90;;;;;;4992816;28;20497;-63
2023/09/19 10:33:26;;;;;;;12.35;3.65;;;18.70;99.90;;;;;;5008582;28;20053;-61
2023/09/19 10:35:55;;;;;;;11.32;3.50;;;18.80;99.90;;;;;;5012529;28;20049;-61
2023/09/19 10:38:28;;;;;;;11.98;2.78;;;18.80;99.90;;;;;;5011709;28;20054;-62
2023/09/19 10:40:59;;;;;;;12.25;3.17;;;18.90;99.90;;;;;;5011998;28;20383;-63
2023/09/19 10:43:28;;;;;;;;;;;18.80;99.90;;;;;;4996243;28;20046;-63
2023/09/19 10:46:00;;;;;;;11.82;3.53;;;18.60;99.90;;;;;;4992795;28;19922;-61
2023/09/19 10:48:28;;;;;;;9.32;2.60;;;18.70;99.90;;;;;;4991940;28;20113;-63
2023/09/19 10:51:15;;;;;;;10.23;3.22;;;18.60;99.90;;;;;;4992566;28;20468;-63
2023/09/19 10:53:50;;;;;;;9.02;2.83;;;18.60;99.90;;;;;;5010318;28;20162;-63
2023/09/19 10:56:27;;;;;;;11.30;3.25;;;18.60;99.90;;;;;;5012006;28;20054;-62
2023/09/19 10:59:12;;;;;;;18.80;3.70;;;18.70;99.90;;;;;;5011263;28;20053;-62
2023/09/19 11:01:53;;;;;;;12.77;3.30;;;18.80;99.90;;;;;;5009146;28;20390;-62
2023/09/19 11:04:36;;;;;;;11.77;2.83;;;18.90;99.90;;;;;;4991862;28;20434;-62
2023/09/19 11:07:14;;;;;;;11.50;3.03;;;18.80;99.90;;;;;;4992410;28;20151;-61
2023/09/19 11:09:54;;;;;;;8.60;2.70;;;19.00;99.90;;;;;;4991589;28;20073;-62
2023/09/19 11:14:59;;;;;;;9.95;3.00;;;19.10;99.90;;;;;;5012523;28;20050;-62
2023/09/19 11:17:31;;;;;;;10.05;2.92;;;19.10;99.90;;;;;;5011175;28;20046;-61
2023/09/19 11:22:48;;;;;;;12.00;3.20;;;19.10;99.90;;;;;;5001630;28;20051;-60
2023/09/19 11:25:30;;;;;;;9.18;2.85;;;19.10;99.90;;;;;;4991404;28;20104;-61
2023/09/19 11:28:05;;;;;;;14.68;3.13;;;19.30;99.90;;;;;;4991271;28;20101;-61
2023/09/19 11:30:37;;;;;;;9.93;3.35;;;19.20;99.90;;;;;;4992692;28;20446;-61
2023/09/19 11:33:38;;;;;;;10.07;3.55;;;19.20;99.90;;;;;;5004175;28;20368;-63
2023/09/19 11:36:09;;;;;;;;;;;19.40;99.90;;;;;;5012934;28;20061;-63
2023/09/19 11:38:45;;;;;;;10.25;2.53;;;19.30;99.90;;;;;;5010986;28;20384;-61
2023/09/19 11:41:21;;;;;;;6.63;2.45;;;19.20;99.90;;;;;;5011381;28;20141;-61
2023/09/19 11:44:10;;;;;;;8.65;2.95;;;19.20;99.90;;;;;;5011418;28;20112;-62
2023/09/19 11:46:52;;;;;;;;;;;19.20;99.90;;;;;;5002454;28;20061;-61
2023/09/19 11:49:23;;;;;;;10.27;3.28;;;19.20;99.90;;;;;;5010635;28;20357;-63
2023/09/19 11:51:57;;;;;;;8.32;3.17;;;19.30;99.90;;;;;;4990902;28;20489;-62
2023/09/19 11:54:28;;;;;;;7.78;2.70;;;19.40;99.90;;;;;;4974069;28;20114;-62
2023/09/19 11:56:55;;;;;;;5.72;2.47;;;19.40;99.90;;;;;;4991254;28;20061;-62
2023/09/19 11:59:22;;;;;;;9.60;3.13;;;19.30;99.90;;;;;;4990038;28;20054;-62
2023/09/19 12:02:06;;;;;;;9.48;2.90;;;19.30;99.90;;;;;;4959399;28;20505;-62
2023/09/19 12:04:33;;;;;;;7.35;2.60;;;19.30;99.90;;;;;;5010530;28;20053;-62
2023/09/19 12:06:59;;;;;;;6.75;2.45;;;19.20;99.90;;;;;;5010686;28;20058;-62
2023/09/19 12:09:27;;;;;;;7.30;2.97;;;19.10;99.90;;;;;;5010025;28;20054;-62
2023/09/19 12:11:53;;;;;;;8.60;2.38;;;19.00;99.90;;;;;;5007601;28;20056;-62
2023/09/19 12:14:25;;;;;;;9.65;2.65;;;19.00;99.90;;;;;;4990804;28;20429;-62
2023/09/19 12:16:55;;;;;;;10.88;3.22;;;19.10;99.90;;;;;;4990879;28;20069;-62
2023/09/19 12:19:23;;;;;;;7.32;2.78;;;19.10;99.90;;;;;;4973386;28;20121;-61
2023/09/19 12:22:04;;;;;;;5.70;2.45;;;19.30;99.90;;;;;;4992794;28;20053;-61
2023/09/19 12:24:31;;;;;;;9.20;2.72;;;19.70;99.90;;;;;;5010263;28;20386;-62
2023/09/19 12:27:06;;;;;;;9.32;3.35;;;19.80;99.90;;;;;;5010505;28;20322;-62
2023/09/19 12:29:43;;;;;;;6.90;2.78;;;20.00;99.90;;;;;;5010040;28;20343;-62
2023/09/19 12:32:09;;;;;;;11.02;2.83;;;19.90;99.90;;;;;;5005292;28;20042;-63
2023/09/19 12:34:42;;;;;;;7.07;2.90;;;19.90;99.90;;;;;;4990731;28;20043;-62
2023/09/19 12:37:20;;;;;;;8.80;2.78;;;19.90;99.90;;;;;;4997010;28;20061;-60
2023/09/19 12:39:52;;;;;;;6.63;2.22;;;19.90;99.90;;;;;;4994077;28;20389;-61
2023/09/19 12:42:21;;;;;;;7.72;2.50;;;20.00;99.90;;;;;;5009210;28;20390;-62
2023/09/19 12:44:55;;;;;;;6.40;2.45;;;19.90;99.90;;;;;;5010509;28;20067;-61
2023/09/19 12:47:23;;;;;;;8.40;2.45;;;19.90;99.90;;;;;;5010612;28;20049;-62
2023/09/19 12:50:25;;;;;;;6.50;2.50;;;19.70;99.90;;;;;;5010545;28;20041;-63
2023/09/19 12:52:53;;;;;;;;;;;19.60;99.90;;;;;;5010697;28;20458;-63
2023/09/19 12:55:32;;;;;;;8.02;2.30;;;19.60;99.90;;;;;;4993586;28;19932;-62
2023/09/19 12:58:19;;;;;;;7.50;2.38;;;19.50;99.90;;;;;;5010107;28;20050;-64
2023/09/19 13:00:46;;;;;;;12.30;2.63;;;19.40;99.90;;;;;;5010008;28;20476;-62
2023/09/19 13:03:25;;;;;;;8.40;2.47;;;19.30;99.90;;;;;;4992767;28;20160;-63
2023/09/19 13:05:57;;;;;;;13.00;2.63;;;19.30;99.90;;;;;;4993611;28;20049;-63
2023/09/19 13:08:30;;;;;;;7.25;2.40;;;19.20;99.90;;;;;;4977115;28;20109;-63
2023/09/19 13:11:13;;;;;;;8.20;2.17;;;19.20;99.90;;;;;;4993100;28;20050;-62